createdAt,value
2018-02-04T00:01:30.178Z,-0.70
2018-02-04T00:03:57.155Z,-0.70
2018-02-04T00:06:23.369Z,-0.80
2018-02-04T00:08:50.352Z,-0.70
2018-02-04T00:11:16.603Z,-0.70
2018-02-04T00:13:42.831Z,-0.60
2018-02-04T00:16:09.040Z,-0.60
2018-02-04T00:18:35.272Z,-0.60
2018-02-04T00:21:01.486Z,-0.60
2018-02-04T00:23:27.726Z,-0.60
2018-02-04T00:25:53.950Z,-0.60
2018-02-04T00:28:20.174Z,-0.60
2018-02-04T00:30:46.375Z,-0.70
2018-02-04T00:33:13.572Z,-0.70
2018-02-04T00:35:39.794Z,-0.80
2018-02-04T00:38:06.079Z,-0.70
2018-02-04T00:40:32.345Z,-0.70
2018-02-04T00:42:58.585Z,-0.70
2018-02-04T00:45:24.781Z,-0.70
2018-02-04T00:47:51.745Z,-0.70
2018-02-04T00:50:17.968Z,-0.80
2018-02-04T00:52:44.923Z,-0.70
2018-02-04T00:55:11.184Z,-0.80
2018-02-04T00:57:37.416Z,-0.70
2018-02-04T01:00:03.667Z,-0.70
2018-02-04T01:02:29.925Z,-0.70
2018-02-04T01:04:56.912Z,-0.60
2018-02-04T01:07:23.149Z,-0.70
2018-02-04T01:09:49.356Z,-0.70
2018-02-04T01:12:15.564Z,-0.70
2018-02-04T01:14:42.535Z,-0.60
2018-02-04T01:17:08.753Z,-0.70
2018-02-04T01:19:35.738Z,-0.60
2018-02-04T01:22:01.963Z,-0.70
2018-02-04T01:24:28.457Z,-0.60
2018-02-04T01:26:55.433Z,-0.60
2018-02-04T01:29:21.640Z,-0.60
2018-02-04T01:31:48.613Z,-0.60
2018-02-04T01:34:14.829Z,-0.60
2018-02-04T01:36:41.061Z,-0.60
2018-02-04T01:39:07.309Z,-0.60
2018-02-04T01:41:33.569Z,-0.60
2018-02-04T01:43:59.801Z,-0.60
2018-02-04T01:46:26.032Z,-0.60
2018-02-04T01:48:52.305Z,-0.60
2018-02-04T01:51:18.532Z,-0.60
2018-02-04T01:53:44.776Z,-0.60
2018-02-04T01:56:11.001Z,-0.60
2018-02-04T01:58:37.249Z,-0.60
2018-02-04T02:01:03.460Z,-0.60
2018-02-04T02:03:29.697Z,-0.60
2018-02-04T02:05:55.917Z,-0.70
2018-02-04T02:08:22.150Z,-0.70
2018-02-04T02:10:48.366Z,-0.70
2018-02-04T02:13:15.354Z,-0.80
2018-02-04T02:15:41.600Z,-0.80
2018-02-04T02:18:07.860Z,-0.80
2018-02-04T02:20:34.853Z,-0.80
2018-02-04T02:23:01.122Z,-0.80
2018-02-04T02:25:27.352Z,-0.80
2018-02-04T02:27:53.565Z,-0.70
2018-02-04T02:30:19.798Z,-0.70
2018-02-04T02:32:46.010Z,-0.70
2018-02-04T02:35:12.265Z,-0.70
2018-02-04T02:37:38.514Z,-0.70
2018-02-04T02:40:04.738Z,-0.70
2018-02-04T02:42:30.987Z,-0.70
2018-02-04T02:44:57.944Z,-0.70
2018-02-04T02:47:24.180Z,-0.70
2018-02-04T02:49:50.387Z,-0.70
2018-02-04T02:52:17.403Z,-0.60
2018-02-04T02:54:43.612Z,-0.70
2018-02-04T02:57:09.860Z,-0.60
2018-02-04T02:59:36.064Z,-0.60
2018-02-04T03:02:02.301Z,-0.60
2018-02-04T03:04:28.546Z,-0.50
2018-02-04T03:06:54.787Z,-0.50
2018-02-04T03:09:21.001Z,-0.50
2018-02-04T03:11:47.252Z,-0.50
2018-02-04T03:14:13.465Z,-0.50
2018-02-04T03:16:39.700Z,-0.50
2018-02-04T03:19:05.912Z,-0.50
2018-02-04T03:21:32.138Z,-0.50
2018-02-04T03:23:58.337Z,-0.50
2018-02-04T03:26:25.333Z,-0.50
2018-02-04T03:28:51.570Z,-0.50
2018-02-04T03:31:17.785Z,-0.50
2018-02-04T03:33:44.021Z,-0.40
2018-02-04T03:36:10.280Z,-0.40
2018-02-04T03:38:36.493Z,-0.40
2018-02-04T03:41:02.749Z,-0.40
2018-02-04T03:43:29.746Z,-0.50
2018-02-04T03:45:56.020Z,-0.50
2018-02-04T03:48:22.243Z,-0.50
2018-02-04T03:50:48.476Z,-0.50
2018-02-04T03:53:14.740Z,-0.40
2018-02-04T03:55:40.989Z,-0.50
2018-02-04T03:58:07.228Z,-0.50
2018-02-04T04:00:33.436Z,-0.50
2018-02-04T04:02:59.713Z,-0.50
2018-02-04T04:05:25.928Z,-0.50
2018-02-04T04:07:52.158Z,-0.50
2018-02-04T04:10:18.397Z,-0.50
2018-02-04T04:12:44.604Z,-0.50
2018-02-04T04:15:10.860Z,-0.50
2018-02-04T04:17:37.080Z,-0.50
2018-02-04T04:20:03.317Z,-0.50
2018-02-04T04:22:29.530Z,-0.60
2018-02-04T04:24:55.766Z,-0.60
2018-02-04T04:27:21.968Z,-0.60
2018-02-04T04:29:48.217Z,-0.60
2018-02-04T04:32:14.472Z,-0.60
2018-02-04T04:34:40.685Z,-0.60
2018-02-04T04:37:06.903Z,-0.60
2018-02-04T04:39:33.141Z,-0.60
2018-02-04T04:41:59.401Z,-0.60
2018-02-04T04:44:25.664Z,-0.60
2018-02-04T04:46:51.924Z,-0.60
2018-02-04T04:49:18.152Z,-0.60
2018-02-04T04:51:44.419Z,-0.60
2018-02-04T04:54:10.640Z,-0.70
2018-02-04T04:56:37.697Z,-0.60
2018-02-04T04:59:03.917Z,-0.70
2018-02-04T05:01:30.158Z,-0.60
2018-02-04T05:03:56.357Z,-0.70
2018-02-04T05:06:22.597Z,-0.70
2018-02-04T05:08:48.864Z,-0.70
2018-02-04T05:11:15.146Z,-0.70
2018-02-04T05:13:41.383Z,-0.70
2018-02-04T05:16:07.600Z,-0.80
2018-02-04T05:18:33.842Z,-0.80
2018-02-04T05:21:00.085Z,-0.80
2018-02-04T05:23:26.321Z,-0.80
2018-02-04T05:25:52.553Z,-0.80
2018-02-04T05:28:18.768Z,-0.80
2018-02-04T05:30:45.016Z,-0.80
2018-02-04T05:33:11.248Z,-0.80
2018-02-04T05:35:37.467Z,-0.80
2018-02-04T05:38:03.681Z,-0.80
2018-02-04T05:40:29.916Z,-0.70
2018-02-04T05:42:56.139Z,-0.70
2018-02-04T05:45:22.391Z,-0.70
2018-02-04T05:47:48.636Z,-0.70
2018-02-04T05:50:14.920Z,-0.60
2018-02-04T05:52:41.205Z,-0.60
2018-02-04T05:55:08.189Z,-0.70
2018-02-04T05:57:34.452Z,-0.70
2018-02-04T06:00:01.474Z,-0.80
2018-02-04T06:02:27.737Z,-0.80
2018-02-04T06:05:47.057Z,-0.90
2018-02-04T06:08:13.456Z,-0.90
2018-02-04T06:10:39.878Z,-0.90
2018-02-04T06:13:06.277Z,-0.90
2018-02-04T06:15:32.698Z,-1.00
2018-02-04T06:17:59.074Z,-1.00
2018-02-04T06:20:25.537Z,-1.10
2018-02-04T06:22:52.014Z,-1.10
2018-02-04T06:25:18.593Z,-1.20
2018-02-04T06:27:45.068Z,-1.30
2018-02-04T06:30:11.517Z,-1.30
2018-02-04T06:32:38.122Z,-1.20
2018-02-04T06:35:05.354Z,-1.00
2018-02-04T06:37:31.858Z,-1.10
2018-02-04T06:39:58.259Z,-1.00
2018-02-04T06:42:25.414Z,-0.90
2018-02-04T06:44:52.582Z,-0.90
2018-02-04T06:47:19.105Z,-0.90
2018-02-04T06:49:46.250Z,-0.90
2018-02-04T06:52:13.421Z,-0.90
2018-02-04T06:54:39.821Z,-1.00
2018-02-04T06:57:06.254Z,-0.90
2018-02-04T06:59:32.674Z,-1.00
2018-02-04T07:01:59.077Z,-1.00
2018-02-04T07:04:25.546Z,-0.90
2018-02-04T07:06:51.928Z,-0.90
2018-02-04T07:09:18.369Z,-0.80
2018-02-04T07:11:44.763Z,-0.80
2018-02-04T07:14:12.020Z,-0.60
2018-02-04T07:16:39.378Z,-0.60
2018-02-04T07:19:06.510Z,-0.60
2018-02-04T07:21:33.742Z,-0.50
2018-02-04T07:24:00.146Z,-0.50
2018-02-04T07:26:26.592Z,-0.50
2018-02-04T07:28:53.007Z,-0.40
2018-02-04T07:31:19.411Z,-0.40
2018-02-04T07:33:45.807Z,-0.30
2018-02-04T07:36:12.222Z,-0.30
2018-02-04T07:38:38.654Z,-0.20
2018-02-04T07:41:05.117Z,-0.10
2018-02-04T07:43:34.285Z,-0.10
2018-02-04T07:46:00.874Z,0.10
2018-02-04T07:48:27.307Z,0.20
2018-02-04T07:50:53.698Z,0.20
2018-02-04T07:53:19.956Z,0.30
2018-02-04T07:55:46.153Z,0.30
2018-02-04T07:58:12.428Z,0.20
2018-02-04T08:00:38.804Z,0.30
2018-02-04T08:03:05.238Z,0.30
2018-02-04T08:05:31.649Z,0.40
2018-02-04T08:07:58.023Z,0.40
2018-02-04T08:10:24.440Z,0.40
2018-02-04T08:12:50.809Z,0.40
2018-02-04T08:15:17.234Z,0.50
2018-02-04T08:17:43.688Z,0.40
2018-02-04T08:20:10.729Z,0.40
2018-02-04T08:22:37.151Z,0.30
2018-02-04T08:25:03.599Z,0.30
2018-02-04T08:27:30.022Z,0.20
2018-02-04T08:29:56.433Z,0.20
2018-02-04T08:32:22.874Z,0.20
2018-02-04T08:34:49.468Z,0.10
2018-02-04T08:37:16.683Z,0.20
2018-02-04T08:39:43.117Z,0.10
2018-02-04T08:42:09.494Z,0.10
2018-02-04T08:44:35.986Z,0.10
2018-02-04T08:47:02.466Z,0.10
2018-02-04T08:49:28.894Z,0.10
2018-02-04T08:51:56.072Z,0.00
2018-02-04T08:54:23.239Z,0.00
2018-02-04T08:56:49.646Z,-0.10
2018-02-04T08:59:17.249Z,0.40
2018-02-04T09:01:43.661Z,0.30
2018-02-04T09:04:10.826Z,0.90
2018-02-04T09:06:37.214Z,0.80
2018-02-04T09:09:03.746Z,1.10
2018-02-04T09:11:30.165Z,1.30
2018-02-04T09:13:56.604Z,1.40
2018-02-04T09:16:23.002Z,1.50
2018-02-04T09:18:49.414Z,1.60
2018-02-04T09:21:16.566Z,1.70
2018-02-04T09:23:43.741Z,1.70
2018-02-04T09:26:10.149Z,1.60
2018-02-04T09:28:37.302Z,1.70
2018-02-04T09:31:04.427Z,1.90
2018-02-04T09:33:37.943Z,1.90
2018-02-04T09:36:05.110Z,2.00
2018-02-04T09:38:32.282Z,2.10
2018-02-04T09:40:58.683Z,2.00
2018-02-04T09:43:25.813Z,2.10
2018-02-04T09:45:52.246Z,2.00
2018-02-04T09:48:18.653Z,2.20
2018-02-04T09:50:45.157Z,2.30
2018-02-04T09:53:11.635Z,2.50
2018-02-04T09:55:38.030Z,2.40
2018-02-04T09:58:05.233Z,2.20
2018-02-04T10:00:31.671Z,2.10
2018-02-04T10:02:58.082Z,2.30
2018-02-04T10:05:24.541Z,2.30
2018-02-04T10:07:51.008Z,2.20
2018-02-04T10:10:18.162Z,2.00
2018-02-04T10:12:45.289Z,1.90
2018-02-04T10:15:11.702Z,1.90
2018-02-04T10:17:38.158Z,1.80
2018-02-04T10:20:04.861Z,1.80
2018-02-04T10:22:31.350Z,1.90
2018-02-04T10:24:58.496Z,2.20
2018-02-04T10:27:24.994Z,2.20
2018-02-04T10:29:51.416Z,2.50
2018-02-04T10:32:17.838Z,2.80
2018-02-04T10:34:44.242Z,3.00
2018-02-04T10:37:11.417Z,3.20
2018-02-04T10:39:37.838Z,3.20
2018-02-04T10:42:04.969Z,3.30
2018-02-04T10:44:31.409Z,3.30
2018-02-04T10:46:58.538Z,3.10
2018-02-04T10:49:24.949Z,3.10
2018-02-04T10:51:57.501Z,3.00
2018-02-04T10:54:23.909Z,2.80
2018-02-04T10:56:50.904Z,2.40
2018-02-04T10:59:17.125Z,2.30
2018-02-04T11:01:43.364Z,2.00
2018-02-04T11:04:09.580Z,1.80
2018-02-04T11:06:35.812Z,1.70
2018-02-04T11:09:02.119Z,1.40
2018-02-04T11:11:29.078Z,0.90
2018-02-04T11:13:55.538Z,0.90
2018-02-04T11:16:21.745Z,0.70
2018-02-04T11:18:47.970Z,0.40
2018-02-04T11:21:14.948Z,0.50
2018-02-04T11:23:41.273Z,0.50
2018-02-04T11:26:07.528Z,0.80
2018-02-04T11:28:33.799Z,1.10
2018-02-04T11:31:07.135Z,1.60
2018-02-04T11:33:33.443Z,1.50
2018-02-04T11:35:59.910Z,1.80
2018-02-04T11:38:26.339Z,1.90
2018-02-04T11:40:52.745Z,2.10
2018-02-04T11:43:20.432Z,2.20
2018-02-04T11:45:47.004Z,2.20
2018-02-04T11:48:13.443Z,2.20
2018-02-04T11:50:39.885Z,2.20
2018-02-04T11:53:06.314Z,2.10
2018-02-04T11:55:32.779Z,2.10
2018-02-04T11:57:59.243Z,2.00
2018-02-04T12:00:25.752Z,2.10
2018-02-04T12:02:52.938Z,3.10
2018-02-04T12:05:19.345Z,3.10
2018-02-04T12:07:45.790Z,3.40
2018-02-04T12:10:12.265Z,3.60
2018-02-04T12:12:38.706Z,4.00
2018-02-04T12:15:05.219Z,4.20
2018-02-04T12:17:31.606Z,4.20
2018-02-04T12:19:58.798Z,3.50
2018-02-04T12:22:25.183Z,3.50
2018-02-04T12:24:52.342Z,2.80
2018-02-04T12:27:19.470Z,2.80
2018-02-04T12:29:45.707Z,2.70
2018-02-04T12:32:12.994Z,2.70
2018-02-04T12:34:40.550Z,2.80
2018-02-04T12:37:07.709Z,2.80
2018-02-04T12:39:34.154Z,2.80
2018-02-04T12:42:05.120Z,3.00
2018-02-04T12:44:34.565Z,3.00
2018-02-04T12:47:11.460Z,3.20
2018-02-04T12:49:43.286Z,3.20
2018-02-04T12:52:10.117Z,3.20
2018-02-04T12:54:36.533Z,3.30
2018-02-04T12:57:02.933Z,3.30
2018-02-04T12:59:29.383Z,3.50
2018-02-04T13:01:55.760Z,3.50
2018-02-04T13:04:22.178Z,3.50
2018-02-04T13:06:48.611Z,3.40
2018-02-04T13:09:15.033Z,3.30
2018-02-04T13:11:41.522Z,3.30
2018-02-04T13:14:08.664Z,3.30
2018-02-04T13:16:35.100Z,3.20
2018-02-04T13:19:01.495Z,3.50
2018-02-04T13:21:28.438Z,3.60
2018-02-04T13:23:54.838Z,3.80
2018-02-04T13:26:22.051Z,3.50
2018-02-04T13:28:48.471Z,3.50
2018-02-04T13:31:14.857Z,3.60
2018-02-04T13:33:42.014Z,3.10
2018-02-04T13:36:09.180Z,2.90
2018-02-04T13:38:36.395Z,2.80
2018-02-04T13:41:02.813Z,2.80
2018-02-04T13:43:29.274Z,2.80
2018-02-04T13:45:57.089Z,2.90
2018-02-04T13:48:23.503Z,2.80
2018-02-04T13:50:50.081Z,2.90
2018-02-04T13:53:16.632Z,2.90
2018-02-04T13:55:43.066Z,2.90
2018-02-04T13:58:10.193Z,3.20
2018-02-04T14:00:36.934Z,3.20
2018-02-04T14:03:07.887Z,3.10
2018-02-04T14:05:37.393Z,3.10
2018-02-04T14:08:08.637Z,2.80
2018-02-04T14:10:41.582Z,2.80
2018-02-04T14:13:10.302Z,2.80
2018-02-04T14:15:36.717Z,2.80
2018-02-04T14:18:03.234Z,2.80
2018-02-04T14:20:31.034Z,2.70
2018-02-04T14:22:57.315Z,2.60
2018-02-04T14:25:24.331Z,1.50
2018-02-04T14:27:50.619Z,1.50
2018-02-04T14:30:16.946Z,1.10
2018-02-04T14:32:44.177Z,0.90
2018-02-04T14:35:10.726Z,0.80
2018-02-04T14:37:37.753Z,0.70
2018-02-04T14:40:04.017Z,0.60
2018-02-04T14:42:31.049Z,0.20
2018-02-04T14:44:57.685Z,0.20
2018-02-04T14:47:23.973Z,0.00
2018-02-04T14:49:50.262Z,-0.20
2018-02-04T14:52:17.228Z,-0.30
2018-02-04T14:54:43.633Z,-0.30
2018-02-04T14:57:09.844Z,-0.40
2018-02-04T14:59:36.088Z,-0.40
2018-02-04T15:02:02.346Z,-0.50
2018-02-04T15:04:28.559Z,-0.50
2018-02-04T15:06:55.540Z,-0.30
2018-02-04T15:09:21.753Z,-0.40
2018-02-04T15:11:47.995Z,-0.20
2018-02-04T15:14:14.233Z,0.00
2018-02-04T15:16:40.497Z,0.20
2018-02-04T15:19:06.717Z,0.40
2018-02-04T15:21:32.965Z,0.60
2018-02-04T15:23:59.967Z,0.40
2018-02-04T15:26:26.205Z,0.40
2018-02-04T15:28:52.420Z,0.20
2018-02-04T15:31:18.668Z,0.20
2018-02-04T15:33:44.881Z,0.20
2018-02-04T15:36:11.205Z,0.20
2018-02-04T15:38:37.464Z,0.20
2018-02-04T15:41:03.716Z,0.10
2018-02-04T15:43:30.015Z,0.00
2018-02-04T15:45:56.292Z,-0.10
2018-02-04T15:48:22.616Z,-0.20
2018-02-04T15:50:48.995Z,-0.30
2018-02-04T15:53:15.232Z,-0.50
2018-02-04T15:55:41.928Z,-0.60
2018-02-04T15:58:08.433Z,-0.70
2018-02-04T16:00:35.165Z,-0.80
2018-02-04T16:03:01.752Z,-0.90
2018-02-04T16:05:29.202Z,-1.10
2018-02-04T16:08:05.889Z,-1.10
2018-02-04T16:10:32.906Z,-1.30
2018-02-04T16:12:59.147Z,-1.30
2018-02-04T16:15:25.387Z,-1.40
2018-02-04T16:17:51.606Z,-1.40
2018-02-04T16:20:17.876Z,-1.40
2018-02-04T16:22:44.829Z,-1.40
2018-02-04T16:25:11.803Z,-1.50
2018-02-04T16:27:38.048Z,-1.60
2018-02-04T16:30:04.282Z,-1.60
2018-02-04T16:32:30.521Z,-1.80
2018-02-04T16:34:56.737Z,-1.80
2018-02-04T16:37:22.993Z,-1.80
2018-02-04T16:39:49.218Z,-1.90
2018-02-04T16:42:15.462Z,-1.80
2018-02-04T16:47:05.853Z,-1.90
2018-02-04T16:49:32.294Z,-1.80
2018-02-04T16:51:58.737Z,-1.90
2018-02-04T16:54:25.201Z,-1.80
2018-02-04T16:56:51.627Z,-1.90
2018-02-04T16:59:18.042Z,-1.80
2018-02-04T17:01:44.479Z,-1.80
2018-02-04T17:04:11.627Z,-2.00
2018-02-04T17:06:38.781Z,-2.00
2018-02-04T17:09:05.250Z,-2.10
2018-02-04T17:11:31.673Z,-2.10
2018-02-04T17:13:58.807Z,-2.20
2018-02-04T17:16:25.988Z,-2.30
2018-02-04T17:18:52.373Z,-2.30
2018-02-04T17:21:18.782Z,-2.30
2018-02-04T17:23:45.245Z,-2.40
2018-02-04T17:26:11.719Z,-2.40
2018-02-04T17:28:38.194Z,-2.50
2018-02-04T17:31:05.424Z,-2.60
2018-02-04T17:33:31.864Z,-2.60
2018-02-04T17:35:58.408Z,-2.50
2018-02-04T17:38:24.831Z,-2.40
2018-02-04T17:40:51.242Z,-2.30
2018-02-04T17:43:18.433Z,-2.30
2018-02-04T17:45:45.683Z,-2.40
2018-02-04T17:48:12.337Z,-2.40
2018-02-04T17:50:39.577Z,-2.60
2018-02-04T17:53:06.166Z,-2.70
2018-02-04T17:55:33.374Z,-2.70
2018-02-04T17:58:06.793Z,-2.70
2018-02-04T18:00:33.239Z,-2.60
2018-02-04T18:02:59.642Z,-2.60
2018-02-04T18:05:26.038Z,-2.60
2018-02-04T18:07:53.221Z,-2.50
2018-02-04T18:10:19.618Z,-2.60
2018-02-04T18:12:46.774Z,-2.70
2018-02-04T18:15:13.227Z,-2.80
2018-02-04T18:17:39.647Z,-3.00
2018-02-04T18:20:06.062Z,-3.20
2018-02-04T18:22:33.308Z,-3.50
2018-02-04T18:24:59.719Z,-3.60
2018-02-04T18:27:26.136Z,-3.60
2018-02-04T18:29:52.565Z,-3.60
2018-02-04T18:32:19.004Z,-3.60
2018-02-04T18:34:45.421Z,-3.50
2018-02-04T18:37:11.856Z,-3.50
2018-02-04T18:39:38.288Z,-3.50
2018-02-04T18:42:04.702Z,-3.50
2018-02-04T18:44:31.854Z,-3.60
2018-02-04T18:47:00.781Z,-3.60
2018-02-04T18:49:27.170Z,-3.70
2018-02-04T18:51:54.406Z,-3.70
2018-02-04T18:54:20.825Z,-3.70
2018-02-04T18:56:47.257Z,-3.70
2018-02-04T18:59:13.680Z,-3.70
2018-02-04T19:01:40.197Z,-3.70
2018-02-04T19:04:06.644Z,-3.70
2018-02-04T19:06:33.057Z,-3.70
2018-02-04T19:08:59.501Z,-3.70
2018-02-04T19:11:25.937Z,-3.70
2018-02-04T19:13:52.386Z,-3.70
2018-02-04T19:16:18.812Z,-3.60
2018-02-04T19:18:45.327Z,-3.60
2018-02-04T19:21:11.739Z,-3.60
2018-02-04T19:23:38.165Z,-3.60
2018-02-04T19:26:04.574Z,-3.60
2018-02-04T19:28:30.995Z,-3.60
2018-02-04T19:30:57.460Z,-3.60
2018-02-04T19:33:23.877Z,-3.70
2018-02-04T19:35:50.287Z,-3.80
2018-02-04T19:38:16.720Z,-3.70
2018-02-04T19:40:43.129Z,-3.80
2018-02-04T19:43:10.258Z,-3.70
2018-02-04T19:45:36.684Z,-3.80
2018-02-04T19:48:03.118Z,-3.70
2018-02-04T19:50:29.541Z,-3.70
2018-02-04T19:52:55.985Z,-3.80
2018-02-04T19:55:22.444Z,-4.00
2018-02-04T19:57:49.574Z,-4.30
2018-02-04T20:00:15.997Z,-4.40
2018-02-04T20:02:42.414Z,-4.40
2018-02-04T20:05:08.809Z,-4.40
2018-02-04T20:07:35.971Z,-4.50
2018-02-04T20:10:02.424Z,-4.50
2018-02-04T20:12:28.868Z,-4.40
2018-02-04T20:14:55.299Z,-4.20
2018-02-04T20:17:21.772Z,-4.10
2018-02-04T20:19:48.227Z,-4.20
2018-02-04T20:22:15.369Z,-4.40
2018-02-04T20:24:42.561Z,-4.40
2018-02-04T20:27:08.982Z,-4.50
2018-02-04T20:29:35.413Z,-4.40
2018-02-04T20:32:01.951Z,-4.50
2018-02-04T20:34:40.631Z,-4.50
2018-02-04T20:37:07.062Z,-4.40
2018-02-04T20:39:34.241Z,-4.50
2018-02-04T20:42:01.395Z,-4.40
2018-02-04T20:44:28.576Z,-4.40
2018-02-04T20:46:54.965Z,-4.50
2018-02-04T20:49:21.403Z,-4.50
2018-02-04T20:51:47.802Z,-4.50
2018-02-04T20:54:14.242Z,-4.40
2018-02-04T20:56:40.667Z,-4.50
2018-02-04T20:59:07.100Z,-4.60
2018-02-04T21:01:33.511Z,-4.60
2018-02-04T21:03:59.940Z,-4.70
2018-02-04T21:06:26.370Z,-4.70
2018-02-04T21:08:53.545Z,-4.70
2018-02-04T21:11:19.949Z,-4.80
2018-02-04T21:13:47.145Z,-4.70
2018-02-04T21:16:13.585Z,-4.70
2018-02-04T21:18:40.744Z,-4.60
2018-02-04T21:21:07.182Z,-4.70
2018-02-04T21:23:33.680Z,-4.50
2018-02-04T21:26:00.101Z,-4.40
2018-02-04T21:28:27.261Z,-4.30
2018-02-04T21:30:53.682Z,-4.40
2018-02-04T21:33:20.810Z,-3.80
2018-02-04T21:35:47.233Z,-3.80
2018-02-04T21:38:14.406Z,-3.10
2018-02-04T21:40:41.588Z,-2.80
2018-02-04T21:43:08.001Z,-2.80
2018-02-04T21:45:35.144Z,-2.40
2018-02-04T21:48:02.357Z,-2.40
2018-02-04T21:50:28.809Z,-2.40
2018-02-04T21:52:55.265Z,-2.30
2018-02-04T21:55:21.740Z,-2.40
2018-02-04T21:57:48.165Z,-2.40
2018-02-04T22:00:14.622Z,-2.40
2018-02-04T22:02:41.032Z,-2.40
2018-02-04T22:05:07.474Z,-2.40
2018-02-04T22:07:33.962Z,-2.50
2018-02-04T22:10:00.387Z,-2.50
2018-02-04T22:12:26.806Z,-2.50
2018-02-04T22:14:53.198Z,-2.50
2018-02-04T22:17:20.364Z,-2.50
2018-02-04T22:19:46.746Z,-2.60
2018-02-04T22:22:13.172Z,-2.60
2018-02-04T22:24:39.608Z,-2.70
2018-02-04T22:27:05.998Z,-2.70
2018-02-04T22:29:32.412Z,-2.70
2018-02-04T22:31:59.557Z,-2.50
2018-02-04T22:34:25.977Z,-2.60
2018-02-04T22:36:52.363Z,-2.50
2018-02-04T22:39:18.803Z,-2.50
2018-02-04T22:41:45.220Z,-2.40
2018-02-04T22:44:11.613Z,-2.40
2018-02-04T22:46:38.046Z,-2.30
2018-02-04T22:49:04.459Z,-2.30
2018-02-04T22:51:30.910Z,-2.30
2018-02-04T22:53:57.520Z,-2.20
2018-02-04T22:56:23.915Z,-2.20
2018-02-04T22:58:51.082Z,-2.20
2018-02-04T23:01:17.540Z,-2.20
2018-02-04T23:03:43.964Z,-2.10
2018-02-04T23:06:10.354Z,-2.10
2018-02-04T23:08:36.852Z,-2.10
2018-02-04T23:11:03.399Z,-2.10
2018-02-04T23:13:29.821Z,-2.00
2018-02-04T23:15:56.232Z,-2.00
2018-02-04T23:18:22.615Z,-1.90
2018-02-04T23:20:49.076Z,-1.90
2018-02-04T23:23:16.220Z,-1.90
2018-02-04T23:25:43.384Z,-1.90
2018-02-04T23:28:10.525Z,-1.90
2018-02-04T23:30:37.665Z,-1.90
2018-02-04T23:33:04.093Z,-1.90
2018-02-04T23:35:30.511Z,-1.80
2018-02-04T23:37:56.969Z,-1.80
2018-02-04T23:40:23.398Z,-1.80
2018-02-04T23:42:49.793Z,-1.80
2018-02-04T23:45:16.231Z,-1.80
2018-02-04T23:47:42.632Z,-1.70
2018-02-04T23:50:09.796Z,-1.70
2018-02-04T23:52:36.239Z,-1.80
2018-02-04T23:55:02.794Z,-1.80
2018-02-04T23:57:29.215Z,-1.80
2018-02-04T23:59:55.693Z,-1.70
